createdAt,value
2023-01-19T00:00:57.532Z,79.58
2023-01-19T00:03:28.382Z,79.67
2023-01-19T00:05:55.500Z,79.56
2023-01-19T00:08:22.566Z,80.14
2023-01-19T00:10:50.796Z,80.01
2023-01-19T00:13:17.914Z,79.91
2023-01-19T00:15:45.581Z,79.99
2023-01-19T00:18:12.733Z,80.31
2023-01-19T00:20:39.904Z,80.33
2023-01-19T00:23:07.770Z,80.80
2023-01-19T00:25:35.738Z,81.27
2023-01-19T00:28:02.992Z,81.08
2023-01-19T00:30:30.232Z,81.34
2023-01-19T00:32:57.946Z,81.61
2023-01-19T00:35:26.085Z,81.61
2023-01-19T00:37:53.193Z,81.83
2023-01-19T00:40:20.262Z,81.97
2023-01-19T00:42:47.918Z,82.59
2023-01-19T00:45:20.338Z,83.71
2023-01-19T00:47:48.667Z,83.18
2023-01-19T00:50:16.920Z,83.21
2023-01-19T00:52:44.649Z,83.45
2023-01-19T00:55:14.274Z,83.66
2023-01-19T00:57:42.566Z,83.88
2023-01-19T01:00:12.962Z,83.97
2023-01-19T01:02:41.171Z,84.60
2023-01-19T01:05:09.425Z,84.53
2023-01-19T01:07:40.657Z,84.45
2023-01-19T01:10:23.678Z,84.72
2023-01-19T01:12:54.956Z,85.48
2023-01-19T01:15:26.867Z,86.00
2023-01-19T01:17:54.592Z,86.52
2023-01-19T01:20:26.412Z,86.94
2023-01-19T01:22:54.730Z,87.39
2023-01-19T01:25:23.329Z,86.91
2023-01-19T01:27:50.885Z,86.63
2023-01-19T01:30:19.093Z,86.77
2023-01-19T01:32:46.323Z,86.77
2023-01-19T01:35:14.578Z,86.63
2023-01-19T01:37:42.479Z,86.77
2023-01-19T01:40:14.551Z,87.10
2023-01-19T01:42:42.567Z,86.91
2023-01-19T01:45:33.377Z,87.22
2023-01-19T01:48:09.680Z,87.31
2023-01-19T01:51:02.313Z,86.97
2023-01-19T01:53:32.434Z,87.55
2023-01-19T01:56:01.989Z,87.17
2023-01-19T01:58:31.129Z,87.17
2023-01-19T02:01:17.133Z,87.52
2023-01-19T02:03:44.696Z,87.76
2023-01-19T02:06:13.274Z,87.78
2023-01-19T02:09:36.946Z,87.89
2023-01-19T02:12:23.082Z,88.13
2023-01-19T02:14:50.039Z,88.29
2023-01-19T02:17:17.126Z,88.40
2023-01-19T02:19:44.277Z,88.35
2023-01-19T02:22:19.946Z,88.50
2023-01-19T02:24:49.377Z,88.71
2023-01-19T02:27:17.409Z,88.69
2023-01-19T02:29:44.518Z,88.99
2023-01-19T02:32:12.437Z,88.83
2023-01-19T02:34:39.905Z,89.06
2023-01-19T02:37:11.751Z,89.12
2023-01-19T02:39:57.643Z,89.16
2023-01-19T02:42:33.671Z,89.13
2023-01-19T02:45:06.147Z,89.17
2023-01-19T02:47:43.368Z,89.28
2023-01-19T02:50:45.601Z,89.22
2023-01-19T02:53:24.650Z,89.44
2023-01-19T02:56:11.659Z,89.57
2023-01-19T02:58:53.425Z,89.54
2023-01-19T03:01:53.428Z,89.70
2023-01-19T03:04:41.030Z,89.71
2023-01-19T03:07:11.397Z,89.86
2023-01-19T03:10:31.225Z,89.75
2023-01-19T03:13:02.817Z,90.15
2023-01-19T03:15:46.358Z,90.18
2023-01-19T03:18:18.310Z,90.28
2023-01-19T03:20:48.937Z,90.08
2023-01-19T03:23:17.436Z,90.26
2023-01-19T03:25:47.810Z,90.35
2023-01-19T03:28:19.128Z,90.34
2023-01-19T03:30:56.199Z,90.40
2023-01-19T03:33:28.924Z,90.24
2023-01-19T03:36:04.795Z,90.39
2023-01-19T03:38:38.027Z,90.51
2023-01-19T03:41:11.093Z,90.51
2023-01-19T03:43:39.589Z,90.53
2023-01-19T03:46:10.388Z,90.40
2023-01-19T03:48:38.419Z,90.49
2023-01-19T03:51:08.526Z,90.76
2023-01-19T03:53:35.957Z,90.71
2023-01-19T03:56:03.454Z,90.66
2023-01-19T03:58:30.611Z,90.83
2023-01-19T04:00:57.943Z,90.67
2023-01-19T04:03:24.997Z,90.93
2023-01-19T04:05:52.175Z,90.77
2023-01-19T04:08:19.537Z,90.69
2023-01-19T04:10:47.426Z,90.98
2023-01-19T04:13:14.854Z,90.90
2023-01-19T04:15:41.953Z,91.08
2023-01-19T04:18:09.286Z,90.88
2023-01-19T04:20:37.066Z,90.92
2023-01-19T04:23:04.857Z,91.24
2023-01-19T04:25:32.706Z,91.19
2023-01-19T04:27:59.784Z,91.10
2023-01-19T04:30:27.233Z,91.21
2023-01-19T04:32:55.782Z,91.16
2023-01-19T04:35:23.367Z,91.41
2023-01-19T04:37:50.954Z,91.15
2023-01-19T04:40:18.658Z,91.34
2023-01-19T04:42:45.951Z,91.38
2023-01-19T04:45:14.396Z,91.43
2023-01-19T04:47:44.367Z,91.32
2023-01-19T04:50:12.623Z,91.55
2023-01-19T04:52:39.695Z,91.26
2023-01-19T04:55:07.744Z,91.47
2023-01-19T04:57:35.148Z,91.44
2023-01-19T05:00:03.718Z,91.45
2023-01-19T05:02:30.911Z,91.36
2023-01-19T05:04:58.093Z,91.53
2023-01-19T05:07:25.527Z,91.41
2023-01-19T05:09:54.131Z,91.57
2023-01-19T05:12:21.438Z,91.62
2023-01-19T05:14:48.698Z,91.49
2023-01-19T05:17:15.922Z,91.51
2023-01-19T05:19:43.681Z,91.35
2023-01-19T05:22:10.985Z,91.59
2023-01-19T05:24:38.342Z,91.45
2023-01-19T05:27:05.706Z,91.55
2023-01-19T05:29:33.768Z,91.50
2023-01-19T05:32:01.287Z,91.69
2023-01-19T05:34:28.909Z,91.67
2023-01-19T05:36:56.149Z,91.49
2023-01-19T05:39:23.223Z,91.65
2023-01-19T05:41:50.580Z,91.38
2023-01-19T05:44:18.206Z,91.34
2023-01-19T05:46:45.329Z,91.31
2023-01-19T05:49:12.704Z,91.16
2023-01-19T05:51:44.748Z,91.21
2023-01-19T05:54:14.895Z,91.12
2023-01-19T05:56:42.439Z,91.29
2023-01-19T05:59:10.600Z,91.08
2023-01-19T06:01:39.762Z,91.03
2023-01-19T06:04:07.244Z,90.94
2023-01-19T06:06:34.361Z,90.87
2023-01-19T06:09:01.877Z,90.93
2023-01-19T06:11:30.936Z,90.81
2023-01-19T06:13:58.270Z,90.85
2023-01-19T06:16:25.435Z,90.49
2023-01-19T06:18:53.261Z,90.55
2023-01-19T06:21:20.836Z,90.36
2023-01-19T06:23:48.169Z,90.25
2023-01-19T06:26:15.326Z,90.12
2023-01-19T06:28:42.516Z,89.91
2023-01-19T06:31:09.684Z,89.95
2023-01-19T06:33:36.910Z,89.67
2023-01-19T06:36:04.897Z,89.66
2023-01-19T06:38:32.499Z,89.20
2023-01-19T06:41:02.880Z,89.11
2023-01-19T06:43:31.058Z,89.09
2023-01-19T06:46:00.230Z,88.97
2023-01-19T06:48:27.739Z,88.81
2023-01-19T06:50:55.561Z,88.60
2023-01-19T06:53:24.080Z,88.58
2023-01-19T06:55:51.288Z,88.49
2023-01-19T06:58:19.493Z,88.36
2023-01-19T07:00:48.469Z,88.33
2023-01-19T07:03:22.179Z,88.08
2023-01-19T07:05:56.314Z,88.00
2023-01-19T07:08:23.770Z,87.91
2023-01-19T07:11:27.072Z,87.84
2023-01-19T07:13:39.705Z,87.39
2023-01-19T07:16:09.849Z,87.42
2023-01-19T07:18:38.418Z,87.32
2023-01-19T07:21:07.896Z,87.22
2023-01-19T07:23:35.802Z,87.01
2023-01-19T07:26:02.983Z,86.58
2023-01-19T07:28:31.216Z,86.92
2023-01-19T07:30:59.099Z,86.72
2023-01-19T07:33:26.249Z,86.51
2023-01-19T07:35:54.266Z,86.64
2023-01-19T07:38:21.601Z,86.39
2023-01-19T07:40:48.875Z,86.29
2023-01-19T07:43:16.168Z,85.77
2023-01-19T07:45:45.152Z,85.92
2023-01-19T07:48:12.412Z,85.96
2023-01-19T07:50:40.713Z,85.80
2023-01-19T07:53:08.889Z,85.74
2023-01-19T07:55:36.298Z,85.49
2023-01-19T07:58:06.777Z,85.45
2023-01-19T08:00:35.452Z,85.38
2023-01-19T08:03:04.628Z,85.30
2023-01-19T08:05:33.395Z,85.31
2023-01-19T08:08:00.674Z,85.24
2023-01-19T08:10:28.972Z,85.13
2023-01-19T08:12:57.236Z,85.01
2023-01-19T08:15:24.797Z,84.91
2023-01-19T08:17:56.298Z,84.80
2023-01-19T08:20:24.700Z,84.68
2023-01-19T08:22:59.581Z,84.76
2023-01-19T08:25:39.028Z,84.43
2023-01-19T08:28:07.432Z,84.43
2023-01-19T08:30:35.367Z,84.12
2023-01-19T08:33:07.685Z,84.17
2023-01-19T08:35:38.263Z,83.74
2023-01-19T08:38:07.452Z,83.73
2023-01-19T08:40:37.599Z,83.32
2023-01-19T08:43:08.232Z,83.15
2023-01-19T08:45:37.577Z,83.14
2023-01-19T08:48:05.971Z,82.89
2023-01-19T08:50:33.892Z,82.77
2023-01-19T08:53:04.239Z,82.84
2023-01-19T08:55:35.215Z,82.83
2023-01-19T08:58:04.372Z,82.64
2023-01-19T09:00:33.848Z,82.62
2023-01-19T09:03:03.461Z,82.60
2023-01-19T09:05:36.864Z,82.40
2023-01-19T09:08:07.946Z,82.24
2023-01-19T09:10:38.248Z,81.97
2023-01-19T09:13:08.057Z,81.57
2023-01-19T09:15:37.034Z,81.87
2023-01-19T09:18:06.584Z,82.12
2023-01-19T09:20:35.578Z,82.04
2023-01-19T09:23:02.982Z,81.95
2023-01-19T09:25:31.101Z,81.89
2023-01-19T09:28:02.353Z,81.69
2023-01-19T09:30:29.709Z,81.58
2023-01-19T09:33:02.203Z,81.45
2023-01-19T09:35:31.077Z,81.46
2023-01-19T09:37:59.673Z,81.44
2023-01-19T09:40:28.772Z,81.29
2023-01-19T09:43:07.478Z,81.16
2023-01-19T09:45:41.529Z,81.36
2023-01-19T09:48:29.385Z,80.92
2023-01-19T09:51:01.819Z,80.61
2023-01-19T09:53:50.003Z,80.76
2023-01-19T09:56:19.817Z,80.83
2023-01-19T09:58:49.070Z,80.84
2023-01-19T10:01:35.273Z,80.93
2023-01-19T10:04:19.169Z,80.94
2023-01-19T10:06:48.663Z,81.04
2023-01-19T10:09:36.747Z,80.80
2023-01-19T10:12:31.951Z,80.83
2023-01-19T10:15:25.260Z,80.94
2023-01-19T10:17:52.377Z,81.01
2023-01-19T10:20:27.506Z,81.05
2023-01-19T10:22:57.103Z,80.96
2023-01-19T10:25:24.779Z,80.77
2023-01-19T10:27:52.032Z,80.94
2023-01-19T10:30:25.976Z,80.96
2023-01-19T10:32:53.237Z,81.02
2023-01-19T10:35:24.612Z,81.13
2023-01-19T10:37:55.981Z,81.19
2023-01-19T10:40:47.480Z,81.29
2023-01-19T10:43:58.095Z,81.50
2023-01-19T10:46:47.231Z,81.55
2023-01-19T10:49:31.108Z,81.49
2023-01-19T10:51:59.835Z,81.48
2023-01-19T10:54:30.569Z,81.46
2023-01-19T10:57:02.965Z,81.61
2023-01-19T10:59:45.794Z,81.54
2023-01-19T11:02:18.358Z,81.78
2023-01-19T11:04:50.069Z,81.84
2023-01-19T11:07:26.471Z,81.85
2023-01-19T11:10:15.296Z,81.89
2023-01-19T11:12:52.909Z,81.51
2023-01-19T11:15:28.945Z,81.72
2023-01-19T11:17:57.288Z,81.87
2023-01-19T11:20:28.913Z,81.62
2023-01-19T11:23:14.425Z,81.59
2023-01-19T11:25:46.227Z,80.87
2023-01-19T11:28:28.228Z,80.71
2023-01-19T11:31:00.835Z,80.40
2023-01-19T11:33:43.815Z,80.49
2023-01-19T11:36:24.698Z,80.41
2023-01-19T11:39:20.808Z,80.56
2023-01-19T11:41:53.197Z,80.68
2023-01-19T11:44:36.804Z,80.69
2023-01-19T11:47:16.377Z,80.99
2023-01-19T11:50:01.170Z,80.80
2023-01-19T11:52:32.595Z,80.81
2023-01-19T11:55:14.527Z,80.70
2023-01-19T11:57:49.466Z,80.53
2023-01-19T12:00:30.807Z,80.38
2023-01-19T12:03:24.520Z,80.29
2023-01-19T12:05:53.801Z,80.02
2023-01-19T12:08:29.508Z,79.97
2023-01-19T12:10:59.490Z,79.89
2023-01-19T12:13:29.918Z,79.72
2023-01-19T12:16:00.188Z,79.80
2023-01-19T12:18:39.399Z,79.81
2023-01-19T12:21:06.681Z,79.68
2023-01-19T12:24:04.744Z,79.59
2023-01-19T12:26:54.123Z,79.43
2023-01-19T12:29:25.578Z,79.34
2023-01-19T12:32:17.245Z,79.45
2023-01-19T12:34:47.524Z,79.39
2023-01-19T12:37:28.451Z,79.25
2023-01-19T12:39:59.348Z,79.09
2023-01-19T12:42:28.947Z,79.46
2023-01-19T12:45:22.988Z,79.55
2023-01-19T12:47:54.147Z,79.33
2023-01-19T12:50:25.476Z,79.38
2023-01-19T12:52:59.435Z,79.53
2023-01-19T12:55:30.625Z,79.50
2023-01-19T12:58:12.999Z,79.37
2023-01-19T13:00:44.213Z,79.40
2023-01-19T13:03:17.334Z,79.53
2023-01-19T13:05:44.533Z,79.42
2023-01-19T13:08:15.316Z,79.58
2023-01-19T13:11:09.049Z,79.55
2023-01-19T13:13:43.645Z,79.39
2023-01-19T13:16:19.889Z,79.28
2023-01-19T13:19:12.366Z,79.18
2023-01-19T13:21:45.722Z,79.18
2023-01-19T13:24:18.885Z,79.14
2023-01-19T13:26:49.232Z,79.10
2023-01-19T13:29:41.074Z,79.12
2023-01-19T13:32:18.897Z,79.01
2023-01-19T13:34:56.791Z,78.92
2023-01-19T13:37:30.230Z,78.81
2023-01-19T13:39:58.378Z,78.70
2023-01-19T13:42:37.298Z,78.66
2023-01-19T13:45:37.411Z,78.58
2023-01-19T13:48:07.589Z,78.47
2023-01-19T13:50:38.826Z,78.56
2023-01-19T13:53:20.225Z,78.55
2023-01-19T13:55:47.850Z,78.38
2023-01-19T13:58:21.913Z,78.31
2023-01-19T14:00:49.407Z,78.49
2023-01-19T14:03:22.451Z,78.36
2023-01-19T14:05:52.012Z,78.17
2023-01-19T14:08:20.142Z,78.13
2023-01-19T14:11:01.758Z,78.12
2023-01-19T14:13:34.440Z,77.99
2023-01-19T14:16:07.835Z,77.66
2023-01-19T14:18:35.936Z,77.74
2023-01-19T14:21:07.480Z,77.78
2023-01-19T14:23:39.853Z,77.43
2023-01-19T14:26:38.988Z,77.59
2023-01-19T14:29:26.411Z,77.47
2023-01-19T14:32:13.268Z,77.33
2023-01-19T14:35:03.801Z,77.23
2023-01-19T14:37:36.235Z,77.10
2023-01-19T14:40:14.260Z,77.22
2023-01-19T14:42:59.776Z,77.20
2023-01-19T14:45:42.724Z,77.02
2023-01-19T14:48:14.630Z,76.96
2023-01-19T14:51:01.335Z,76.93
2023-01-19T14:53:36.347Z,76.54
2023-01-19T14:56:06.723Z,76.67
2023-01-19T14:58:35.139Z,76.87
2023-01-19T15:01:02.687Z,76.76
2023-01-19T15:03:43.704Z,76.55
2023-01-19T15:06:18.349Z,76.49
2023-01-19T15:08:46.711Z,76.41
2023-01-19T15:11:30.980Z,76.32
2023-01-19T15:13:59.557Z,76.33
2023-01-19T15:16:29.478Z,76.15
2023-01-19T15:18:56.718Z,76.02
2023-01-19T15:21:26.776Z,75.95
2023-01-19T15:23:57.642Z,75.64
2023-01-19T15:26:26.413Z,75.68
2023-01-19T15:28:55.786Z,75.56
2023-01-19T15:31:25.492Z,75.51
2023-01-19T15:33:52.705Z,75.68
2023-01-19T15:36:21.939Z,75.46
2023-01-19T15:38:51.502Z,75.54
2023-01-19T15:41:24.353Z,75.36
2023-01-19T15:43:52.449Z,75.19
2023-01-19T15:46:21.551Z,75.40
2023-01-19T15:48:53.524Z,75.27
2023-01-19T15:51:23.056Z,75.23
2023-01-19T15:53:50.438Z,75.35
2023-01-19T15:56:22.917Z,75.26
2023-01-19T15:58:50.918Z,75.29
2023-01-19T16:01:21.260Z,75.28
2023-01-19T16:03:49.607Z,75.29
2023-01-19T16:06:18.105Z,75.22
2023-01-19T16:08:45.824Z,75.25
2023-01-19T16:11:15.693Z,75.17
2023-01-19T16:13:45.837Z,75.23
2023-01-19T16:16:17.783Z,75.26
2023-01-19T16:18:44.892Z,75.23
2023-01-19T16:21:12.163Z,75.19
2023-01-19T16:23:41.671Z,75.14
2023-01-19T16:26:34.614Z,75.15
2023-01-19T16:29:10.275Z,75.32
2023-01-19T16:31:39.163Z,75.63
2023-01-19T16:34:06.932Z,75.29
2023-01-19T16:36:37.083Z,75.42
2023-01-19T16:39:10.892Z,75.82
2023-01-19T16:41:41.200Z,76.39
2023-01-19T16:44:13.597Z,76.49
2023-01-19T16:46:43.058Z,77.51
2023-01-19T16:49:14.628Z,77.50
2023-01-19T16:51:42.550Z,77.67
2023-01-19T16:54:15.853Z,78.71
2023-01-19T16:56:43.255Z,79.32
2023-01-19T16:59:15.020Z,79.56
2023-01-19T17:01:44.526Z,80.17
2023-01-19T17:04:12.920Z,79.89
2023-01-19T17:06:40.871Z,79.51
2023-01-19T17:09:11.851Z,79.59
2023-01-19T17:11:40.045Z,79.54
2023-01-19T17:14:13.592Z,79.50
2023-01-19T17:16:41.471Z,78.93
2023-01-19T17:19:14.747Z,78.83
2023-01-19T17:21:45.703Z,78.13
2023-01-19T17:24:12.981Z,77.82
2023-01-19T17:26:41.864Z,77.71
2023-01-19T17:29:09.703Z,77.60
2023-01-19T17:31:37.520Z,77.45
2023-01-19T17:34:05.734Z,76.89
2023-01-19T17:36:33.157Z,76.59
2023-01-19T17:39:04.960Z,76.13
2023-01-19T17:41:34.474Z,75.88
2023-01-19T17:44:05.083Z,74.73
2023-01-19T17:46:37.559Z,72.77
2023-01-19T17:49:08.086Z,73.33
2023-01-19T17:51:39.163Z,73.81
2023-01-19T17:54:06.810Z,73.49
2023-01-19T17:56:37.007Z,73.34
2023-01-19T17:59:07.192Z,74.01
2023-01-19T18:01:39.051Z,73.61
2023-01-19T18:04:08.003Z,73.92
2023-01-19T18:06:36.065Z,74.07
2023-01-19T18:09:06.270Z,74.33
2023-01-19T18:11:34.423Z,74.18
2023-01-19T18:14:02.715Z,74.54
2023-01-19T18:16:30.300Z,74.74
2023-01-19T18:18:57.713Z,74.44
2023-01-19T18:21:27.636Z,74.85
2023-01-19T18:24:00.677Z,75.09
2023-01-19T18:26:30.232Z,75.19
2023-01-19T18:28:57.705Z,75.34
2023-01-19T18:31:26.136Z,75.54
2023-01-19T18:33:53.756Z,75.72
2023-01-19T18:36:21.527Z,76.01
2023-01-19T18:38:49.440Z,76.74
2023-01-19T18:41:20.343Z,78.29
2023-01-19T18:43:48.293Z,79.70
2023-01-19T18:46:15.819Z,80.19
2023-01-19T18:48:43.456Z,80.47
2023-01-19T18:51:13.058Z,81.05
2023-01-19T18:53:40.471Z,80.65
2023-01-19T18:56:10.492Z,80.56
2023-01-19T18:58:38.794Z,80.38
2023-01-19T19:01:16.735Z,79.87
2023-01-19T19:03:45.138Z,80.23
2023-01-19T19:06:14.188Z,80.40
2023-01-19T19:08:43.658Z,80.66
2023-01-19T19:11:13.916Z,80.76
2023-01-19T19:13:45.270Z,80.68
2023-01-19T19:16:13.478Z,80.23
2023-01-19T19:18:40.822Z,80.58
2023-01-19T19:21:10.691Z,80.30
2023-01-19T19:23:38.560Z,80.77
2023-01-19T19:26:08.018Z,80.72
2023-01-19T19:28:36.746Z,80.78
2023-01-19T19:31:07.863Z,80.38
2023-01-19T19:33:36.628Z,80.69
2023-01-19T19:36:07.275Z,80.84
2023-01-19T19:38:36.353Z,80.97
2023-01-19T19:41:07.185Z,80.83
2023-01-19T19:43:35.747Z,81.07
2023-01-19T19:46:06.054Z,81.15
2023-01-19T19:48:34.262Z,80.93
2023-01-19T19:51:18.575Z,81.14
2023-01-19T19:53:47.856Z,81.07
2023-01-19T19:56:16.348Z,80.82
2023-01-19T19:58:43.855Z,80.72
2023-01-19T20:01:14.819Z,81.39
2023-01-19T20:03:43.182Z,81.62
2023-01-19T20:06:17.483Z,81.65
2023-01-19T20:08:44.932Z,81.63
2023-01-19T20:11:16.234Z,81.56
2023-01-19T20:13:45.117Z,81.82
2023-01-19T20:16:15.573Z,81.63
2023-01-19T20:18:47.955Z,81.97
2023-01-19T20:21:16.214Z,82.01
2023-01-19T20:23:45.190Z,82.03
2023-01-19T20:26:14.624Z,82.29
2023-01-19T20:28:43.600Z,82.43
2023-01-19T20:31:20.231Z,82.41
2023-01-19T20:33:49.071Z,82.05
2023-01-19T20:36:16.623Z,82.38
2023-01-19T20:38:44.604Z,82.67
2023-01-19T20:41:12.868Z,82.69
2023-01-19T20:43:40.370Z,83.04
2023-01-19T20:46:08.122Z,83.13
2023-01-19T20:48:36.175Z,83.32
2023-01-19T20:51:07.550Z,83.56
2023-01-19T20:53:37.561Z,83.71
2023-01-19T20:56:11.694Z,83.69
2023-01-19T20:58:39.805Z,83.36
2023-01-19T21:01:10.918Z,83.98
2023-01-19T21:03:39.182Z,83.78
2023-01-19T21:06:07.064Z,83.55
2023-01-19T21:08:35.101Z,84.59
2023-01-19T21:11:02.342Z,84.53
2023-01-19T21:13:30.183Z,84.44
2023-01-19T21:15:57.728Z,85.12
2023-01-19T21:18:26.049Z,85.20
2023-01-19T21:20:56.983Z,84.89
2023-01-19T21:23:26.251Z,85.09
2023-01-19T21:25:59.198Z,85.12
2023-01-19T21:28:27.620Z,84.87
2023-01-19T21:30:56.715Z,84.94
2023-01-19T21:33:24.110Z,85.01
2023-01-19T21:35:56.339Z,84.92
2023-01-19T21:38:28.787Z,84.76
2023-01-19T21:40:57.309Z,85.61
2023-01-19T21:43:26.080Z,85.79
2023-01-19T21:45:53.199Z,85.20
2023-01-19T21:48:20.392Z,85.16
2023-01-19T21:50:56.591Z,85.15
2023-01-19T21:53:23.805Z,85.67
2023-01-19T21:55:50.944Z,85.28
2023-01-19T21:58:18.118Z,85.20
2023-01-19T22:00:45.330Z,85.03
2023-01-19T22:03:12.703Z,85.07
2023-01-19T22:05:39.845Z,84.77
2023-01-19T22:08:07.067Z,85.05
2023-01-19T22:10:37.344Z,84.69
2023-01-19T22:13:06.103Z,84.88
2023-01-19T22:15:33.557Z,84.64
2023-01-19T22:18:00.696Z,84.57
2023-01-19T22:20:28.012Z,84.92
2023-01-19T22:22:56.079Z,84.76
2023-01-19T22:25:27.143Z,84.69
2023-01-19T22:27:55.285Z,84.56
2023-01-19T22:30:22.692Z,84.72
2023-01-19T22:32:50.092Z,84.93
2023-01-19T22:35:17.412Z,85.14
2023-01-19T22:37:44.548Z,86.25
2023-01-19T22:40:12.511Z,85.77
2023-01-19T22:42:39.530Z,86.64
2023-01-19T22:45:07.813Z,88.18
2023-01-19T22:47:34.816Z,87.50
2023-01-19T22:50:01.992Z,86.97
2023-01-19T22:52:29.288Z,86.97
2023-01-19T22:54:57.710Z,87.79
2023-01-19T22:57:24.985Z,89.37
2023-01-19T22:59:52.166Z,89.20
2023-01-19T23:02:21.223Z,88.29
2023-01-19T23:04:48.407Z,88.53
2023-01-19T23:07:15.518Z,88.20
2023-01-19T23:09:42.535Z,88.03
2023-01-19T23:12:09.700Z,87.90
2023-01-19T23:14:37.110Z,87.88
2023-01-19T23:17:04.261Z,87.90
2023-01-19T23:19:31.259Z,87.73
2023-01-19T23:21:58.422Z,87.63
2023-01-19T23:24:25.739Z,87.26
2023-01-19T23:26:52.924Z,87.52
2023-01-19T23:29:19.914Z,87.46
2023-01-19T23:31:48.913Z,87.58
2023-01-19T23:34:16.806Z,87.41
2023-01-19T23:36:44.181Z,87.20
2023-01-19T23:39:19.825Z,87.32
2023-01-19T23:41:47.531Z,87.05
2023-01-19T23:44:17.914Z,86.79
2023-01-19T23:46:45.886Z,86.56
2023-01-19T23:49:13.290Z,86.41
2023-01-19T23:51:41.633Z,86.45
2023-01-19T23:54:08.788Z,87.09
2023-01-19T23:56:37.829Z,86.44
2023-01-19T23:59:08.083Z,87.85
